KLVM/LVM METAR and TAF weather

Enter ICAO airport designator
Station Type Date Time Source
KLVM METAR 2020/09/19 23:53 UTC NOAA

KLVM 192353Z AUTO 23016KT 10SM FEW042 FEW060 SCT080 12/08 A2995 RMK AO2 PK WND 26037/2319 RAB27E45 SLP127 P0002 60002 T01170083 10206 20117 53003


Station Type Date Time Source
KLVM Decoded METAR 2020/09/19 23:53 UTC NOAA

LIVINGSTON MISSION FIELD, MT, United States (KLVM) 45-42N 110-26W 1418M
Sep 19, 2020 - 07:53 PM EDT / 2020.09.19 2353 UTC
Wind: from the SW (230 degrees) at 18 MPH (16 KT):0
Visibility: 10 mile(s):0
Sky conditions: partly cloudy
Precipitation last hour: 0.02 inches
Temperature: 53.1 F (11.7 C)
Dew Point: 46.9 F (8.3 C)
Relative Humidity: 79%
Pressure (altimeter): 29.95 in. Hg (1014 hPa)
Pressure tendency: 0.01 inches (0.3 hPa) higher than three hours ago
ob: KLVM 192353Z AUTO 23016KT 10SM FEW042 FEW060 SCT080 12/08 A2995 RMK AO2 PK WND 26037/2319 RAB27E45 SLP127 P0002 60002 T01170083 10206 20117 53003
cycle: 0

Station Type Date Time Source
KLVM TAF 2020/09/19 18:36 UTC NOAA

TAF KLVM 191732Z 1918/2018 25018G30KT P6SM VCSH OVC120
FM192000 25025G34KT P6SM VCTS BKN050CB
FM200300 24018G27KT P6SM VCSH BKN040
FM200900 22018G25KT P6SM BKN040

Example: see airport list